createdAt,value
2018-12-20T00:00:56.617Z,1027.30
2018-12-20T00:30:50.281Z,1027.10
2018-12-20T00:54:49.524Z,1027.04
2018-12-20T00:55:50.050Z,1026.99
2018-12-20T00:56:50.802Z,1026.96
2018-12-20T00:57:51.415Z,1026.99
2018-12-20T00:58:52.051Z,1027.02
2018-12-20T00:59:52.649Z,1026.97
2018-12-20T01:00:53.177Z,1026.96
2018-12-20T01:01:53.744Z,1027.03
2018-12-20T01:02:55.416Z,1027.00
2018-12-20T01:03:55.917Z,1027.00
2018-12-20T01:04:56.539Z,1027.03
2018-12-20T01:05:57.073Z,1026.95
2018-12-20T01:06:57.789Z,1026.96
2018-12-20T01:07:58.367Z,1027.01
2018-12-20T01:08:58.948Z,1027.03
2018-12-20T01:09:59.646Z,1026.98
2018-12-20T01:11:00.397Z,1026.87
2018-12-20T01:12:00.864Z,1026.94
2018-12-20T01:13:01.427Z,1026.94
2018-12-20T01:14:02.034Z,1026.90
2018-12-20T01:15:02.654Z,1026.86
2018-12-20T01:16:03.280Z,1026.91
2018-12-20T01:17:03.853Z,1026.83
2018-12-20T01:18:04.376Z,1026.86
2018-12-20T01:19:05.012Z,1026.90
2018-12-20T01:20:05.650Z,1026.94
2018-12-20T01:21:06.240Z,1026.92
2018-12-20T01:22:06.772Z,1026.88
2018-12-20T01:23:07.468Z,1026.88
2018-12-20T01:24:08.058Z,1026.91
2018-12-20T01:25:08.777Z,1027.01
2018-12-20T01:26:09.326Z,1026.92
2018-12-20T01:27:09.881Z,1026.93
2018-12-20T01:28:10.456Z,1026.96
2018-12-20T01:29:11.152Z,1026.85
2018-12-20T01:30:11.892Z,1026.78
2018-12-20T01:31:12.666Z,1026.82
2018-12-20T01:32:13.278Z,1026.83
2018-12-20T01:33:13.804Z,1026.79
2018-12-20T01:34:14.519Z,1026.77
2018-12-20T01:35:15.180Z,1026.70
2018-12-20T01:36:15.768Z,1026.69
2018-12-20T01:37:16.337Z,1026.79
2018-12-20T01:38:16.899Z,1026.81
2018-12-20T01:39:17.514Z,1026.77
2018-12-20T01:40:18.116Z,1026.77
2018-12-20T01:41:18.772Z,1026.67
2018-12-20T01:42:19.617Z,1026.73
2018-12-20T01:43:20.056Z,1026.75
2018-12-20T01:44:20.680Z,1026.74
2018-12-20T01:45:21.388Z,1026.82
2018-12-20T01:46:21.922Z,1026.78
2018-12-20T01:47:22.499Z,1026.80
2018-12-20T01:48:23.069Z,1026.76
2018-12-20T01:49:23.796Z,1026.80
2018-12-20T01:50:24.419Z,1026.77
2018-12-20T01:51:24.999Z,1026.72
2018-12-20T01:52:25.712Z,1026.73
2018-12-20T01:53:26.394Z,1026.82
2018-12-20T01:54:27.090Z,1026.79
2018-12-20T01:55:27.663Z,1026.75
2018-12-20T01:56:28.307Z,1026.78
2018-12-20T01:57:28.992Z,1026.79
2018-12-20T01:58:29.688Z,1026.85
2018-12-20T01:59:30.226Z,1026.82
2018-12-20T02:00:30.945Z,1026.87
2018-12-20T02:01:31.596Z,1026.80
2018-12-20T02:02:32.377Z,1026.88
2018-12-20T02:03:33.137Z,1026.91
2018-12-20T02:04:33.674Z,1026.91
2018-12-20T02:06:53.677Z,1026.82
2018-12-20T02:12:18.816Z,1026.90
2018-12-20T02:15:19.217Z,1026.84
2018-12-20T02:17:17.659Z,1026.82
2018-12-20T02:20:43.079Z,1026.91
2018-12-20T02:36:15.053Z,1026.95
2018-12-20T02:40:14.479Z,1026.99
2018-12-20T02:41:15.052Z,1026.93
2018-12-20T02:42:15.653Z,1026.99
2018-12-20T02:43:16.209Z,1026.94
2018-12-20T02:44:16.980Z,1026.97
2018-12-20T02:45:17.549Z,1027.00
2018-12-20T02:46:18.263Z,1026.88
2018-12-20T02:47:18.814Z,1027.03
2018-12-20T02:48:19.494Z,1026.96
2018-12-20T02:49:20.232Z,1027.01
2018-12-20T02:50:20.791Z,1026.94
2018-12-20T02:51:21.410Z,1026.97
2018-12-20T02:52:22.055Z,1026.96
2018-12-20T02:53:22.601Z,1026.97
2018-12-20T02:54:23.211Z,1026.98
2018-12-20T02:55:23.889Z,1026.97
2018-12-20T02:56:24.466Z,1027.04
2018-12-20T02:57:25.317Z,1027.01
2018-12-20T02:58:25.878Z,1026.98
2018-12-20T02:59:26.612Z,1027.05
2018-12-20T03:00:27.317Z,1027.03
2018-12-20T03:01:27.841Z,1026.99
2018-12-20T03:02:28.445Z,1026.96
2018-12-20T03:03:29.046Z,1027.02
2018-12-20T03:04:29.789Z,1027.02
2018-12-20T03:05:30.417Z,1027.05
2018-12-20T03:06:30.943Z,1027.02
2018-12-20T03:07:31.637Z,1027.06
2018-12-20T03:08:32.170Z,1027.06
2018-12-20T03:09:32.855Z,1027.13
2018-12-20T03:10:33.499Z,1027.09
2018-12-20T03:11:34.166Z,1027.11
2018-12-20T03:12:34.728Z,1027.18
2018-12-20T03:13:35.283Z,1027.11
2018-12-20T03:14:36.144Z,1027.09
2018-12-20T03:15:36.763Z,1027.14
2018-12-20T03:16:37.371Z,1027.10
2018-12-20T03:17:38.048Z,1027.12
2018-12-20T03:18:38.602Z,1027.13
2018-12-20T03:19:39.205Z,1027.10
2018-12-20T03:20:39.954Z,1027.13
2018-12-20T03:21:40.692Z,1027.10
2018-12-20T03:22:41.250Z,1027.11
2018-12-20T03:23:41.923Z,1027.18
2018-12-20T03:24:42.401Z,1027.21
2018-12-20T03:25:43.126Z,1027.12
2018-12-20T03:26:43.759Z,1027.15
2018-12-20T03:27:44.302Z,1027.22
2018-12-20T03:28:44.897Z,1027.18
2018-12-20T03:29:45.620Z,1027.22
2018-12-20T03:30:46.303Z,1027.21
2018-12-20T03:31:46.883Z,1027.18
2018-12-20T03:32:47.573Z,1027.19
2018-12-20T03:33:48.360Z,1027.25
2018-12-20T03:34:48.983Z,1027.17
2018-12-20T03:35:49.514Z,1027.18
2018-12-20T03:36:50.294Z,1027.23
2018-12-20T03:37:51.133Z,1027.21
2018-12-20T03:38:51.765Z,1027.23
2018-12-20T03:39:52.594Z,1027.18
2018-12-20T03:40:53.134Z,1027.12
2018-12-20T03:41:53.732Z,1027.17
2018-12-20T03:42:54.560Z,1027.19
2018-12-20T03:43:55.272Z,1027.11
2018-12-20T03:44:56.119Z,1027.11
2018-12-20T03:45:56.706Z,1027.11
2018-12-20T03:46:57.532Z,1027.10
2018-12-20T03:47:58.181Z,1027.11
2018-12-20T03:48:58.828Z,1027.06
2018-12-20T03:49:59.455Z,1027.02
2018-12-20T03:51:00.082Z,1027.10
2018-12-20T03:52:00.902Z,1027.09
2018-12-20T03:53:01.487Z,1027.01
2018-12-20T03:54:02.223Z,1027.09
2018-12-20T03:55:02.868Z,1027.06
2018-12-20T03:56:03.814Z,1027.05
2018-12-20T03:57:04.128Z,1027.10
2018-12-20T03:58:04.960Z,1027.10
2018-12-20T03:59:05.496Z,1027.09
2018-12-20T04:00:06.159Z,1027.08
2018-12-20T04:01:06.753Z,1027.10
2018-12-20T04:02:07.296Z,1027.14
2018-12-20T04:03:07.989Z,1027.14
2018-12-20T04:04:08.522Z,1027.25
2018-12-20T04:05:09.228Z,1027.21
2018-12-20T04:06:09.804Z,1027.19
2018-12-20T04:07:10.387Z,1027.19
2018-12-20T04:08:11.060Z,1027.21
2018-12-20T04:09:11.737Z,1027.24
2018-12-20T04:10:12.478Z,1027.20
2018-12-20T04:18:00.024Z,1027.08
2018-12-20T04:19:00.634Z,1027.02
2018-12-20T04:20:01.202Z,1027.04
2018-12-20T04:21:01.760Z,1027.09
2018-12-20T04:22:02.511Z,1027.10
2018-12-20T04:23:03.047Z,1027.14
2018-12-20T04:24:04.049Z,1027.17
2018-12-20T04:25:04.726Z,1027.10
2018-12-20T04:26:05.249Z,1027.15
2018-12-20T04:27:05.872Z,1027.18
2018-12-20T04:28:06.397Z,1027.14
2018-12-20T04:29:06.963Z,1027.18
2018-12-20T04:30:07.744Z,1027.22
2018-12-20T04:31:51.475Z,1027.15
2018-12-20T04:36:30.032Z,1027.14
2018-12-20T04:37:30.780Z,1027.16
2018-12-20T04:38:31.439Z,1027.19
2018-12-20T04:39:32.193Z,1027.15
2018-12-20T04:40:32.847Z,1027.16
2018-12-20T04:41:33.418Z,1027.11
2018-12-20T04:42:33.988Z,1027.04
2018-12-20T04:43:34.561Z,1027.01
2018-12-20T04:44:35.195Z,1027.11
2018-12-20T04:45:35.739Z,1027.17
2018-12-20T04:46:36.321Z,1027.15
2018-12-20T04:47:36.900Z,1027.14
2018-12-20T04:48:37.628Z,1027.04
2018-12-20T04:49:38.367Z,1027.11
2018-12-20T04:50:38.981Z,1027.06
2018-12-20T04:51:39.552Z,1027.02
2018-12-20T04:52:40.126Z,1027.13
2018-12-20T04:53:40.717Z,1027.10
2018-12-20T04:54:41.273Z,1027.11
2018-12-20T04:55:42.053Z,1027.07
2018-12-20T04:56:42.582Z,1027.08
2018-12-20T04:57:43.420Z,1027.11
2018-12-20T04:58:44.176Z,1027.18
2018-12-20T04:59:44.851Z,1027.21
2018-12-20T05:00:45.384Z,1027.16
2018-12-20T05:01:46.026Z,1027.13
2018-12-20T05:02:46.630Z,1027.25
2018-12-20T05:03:47.212Z,1027.24
2018-12-20T05:04:47.779Z,1027.23
2018-12-20T05:05:48.354Z,1027.28
2018-12-20T05:06:48.978Z,1027.24
2018-12-20T05:07:49.875Z,1027.27
2018-12-20T05:08:50.406Z,1027.29
2018-12-20T05:09:51.145Z,1027.33
2018-12-20T05:10:51.960Z,1027.34
2018-12-20T05:11:52.662Z,1027.24
2018-12-20T05:12:53.180Z,1027.25
2018-12-20T05:13:53.847Z,1027.25
2018-12-20T05:14:54.376Z,1027.24
2018-12-20T05:15:56.537Z,1027.33
2018-12-20T05:16:56.784Z,1027.26
2018-12-20T05:17:57.353Z,1027.25
2018-12-20T05:18:57.927Z,1027.29
2018-12-20T05:19:58.553Z,1027.34
2018-12-20T05:20:59.300Z,1027.31
2018-12-20T05:21:59.845Z,1027.31
2018-12-20T05:23:00.420Z,1027.31
2018-12-20T05:24:00.993Z,1027.35
2018-12-20T05:25:01.582Z,1027.37
2018-12-20T05:26:02.396Z,1027.34
2018-12-20T05:27:02.928Z,1027.29
2018-12-20T05:28:03.700Z,1027.36
2018-12-20T05:29:04.231Z,1027.42
2018-12-20T05:30:04.987Z,1027.40
2018-12-20T05:31:05.709Z,1027.35
2018-12-20T05:32:06.248Z,1027.31
2018-12-20T05:33:06.823Z,1027.39
2018-12-20T05:34:07.432Z,1027.42
2018-12-20T05:35:08.187Z,1027.31
2018-12-20T05:36:08.952Z,1027.41
2018-12-20T05:37:09.681Z,1027.35
2018-12-20T05:38:10.211Z,1027.34
2018-12-20T05:39:10.817Z,1027.27
2018-12-20T05:40:11.363Z,1027.34
2018-12-20T05:41:12.241Z,1027.29
2018-12-20T05:42:12.942Z,1027.27
2018-12-20T05:43:13.554Z,1027.32
2018-12-20T05:44:14.119Z,1027.33
2018-12-20T05:45:14.789Z,1027.37
2018-12-20T05:46:15.369Z,1027.31
2018-12-20T05:47:16.025Z,1027.35
2018-12-20T05:48:16.559Z,1027.42
2018-12-20T05:49:17.132Z,1027.46
2018-12-20T05:50:17.706Z,1027.42
2018-12-20T05:51:18.391Z,1027.55
2018-12-20T05:52:19.052Z,1027.45
2018-12-20T05:53:19.615Z,1027.45
2018-12-20T05:54:20.161Z,1027.48
2018-12-20T05:55:20.739Z,1027.43
2018-12-20T05:56:21.328Z,1027.44
2018-12-20T05:57:21.934Z,1027.50
2018-12-20T05:58:22.572Z,1027.49
2018-12-20T05:59:23.156Z,1027.47
2018-12-20T06:00:23.912Z,1027.52
2018-12-20T06:01:24.718Z,1027.53
2018-12-20T06:02:25.423Z,1027.59
2018-12-20T06:03:26.041Z,1027.70
2018-12-20T06:05:28.232Z,1027.80
2018-12-20T06:06:28.806Z,1027.80
2018-12-20T06:07:29.457Z,1027.83
2018-12-20T06:08:29.968Z,1027.87
2018-12-20T06:09:30.551Z,1027.82
2018-12-20T06:10:31.102Z,1027.86
2018-12-20T06:14:00.642Z,1027.77
2018-12-20T06:17:43.801Z,1027.88
2018-12-20T06:23:07.239Z,1027.89
2018-12-20T06:27:58.417Z,1028.00
2018-12-20T06:30:00.801Z,1027.95
2018-12-20T06:31:01.416Z,1027.88
2018-12-20T06:32:02.124Z,1027.87
2018-12-20T06:33:02.648Z,1027.96
2018-12-20T06:34:03.213Z,1027.85
2018-12-20T06:35:03.780Z,1027.94
2018-12-20T06:36:04.347Z,1027.90
2018-12-20T06:37:04.912Z,1027.92
2018-12-20T06:38:05.483Z,1027.96
2018-12-20T06:39:06.090Z,1027.90
2018-12-20T06:40:06.700Z,1027.93
2018-12-20T06:41:07.273Z,1027.93
2018-12-20T06:42:07.877Z,1027.92
2018-12-20T06:43:08.444Z,1027.96
2018-12-20T06:44:09.113Z,1027.91
2018-12-20T06:45:09.683Z,1027.88
2018-12-20T06:46:10.254Z,1027.95
2018-12-20T06:47:10.818Z,1027.90
2018-12-20T06:48:11.387Z,1027.92
2018-12-20T06:49:11.956Z,1027.88
2018-12-20T06:50:12.523Z,1027.92
2018-12-20T06:51:13.241Z,1027.83
2018-12-20T06:52:13.810Z,1027.94
2018-12-20T06:53:14.378Z,1027.88
2018-12-20T06:54:14.946Z,1027.85
2018-12-20T06:55:15.514Z,1027.90
2018-12-20T06:56:16.133Z,1027.93
2018-12-20T06:57:16.703Z,1027.83
2018-12-20T06:58:17.271Z,1027.79
2018-12-20T06:59:17.837Z,1027.85
2018-12-20T07:00:18.407Z,1027.79
2018-12-20T07:01:18.973Z,1027.84
2018-12-20T07:02:19.541Z,1027.78
2018-12-20T07:03:20.155Z,1027.85
2018-12-20T07:04:20.798Z,1027.80
2018-12-20T07:05:21.314Z,1027.86
2018-12-20T07:06:21.881Z,1027.82
2018-12-20T07:07:22.448Z,1027.91
2018-12-20T07:08:23.067Z,1027.85
2018-12-20T07:09:23.634Z,1027.87
2018-12-20T07:10:24.252Z,1027.89
2018-12-20T07:11:25.143Z,1027.81
2018-12-20T07:12:25.704Z,1027.87
2018-12-20T07:13:26.329Z,1027.86
2018-12-20T07:14:26.947Z,1027.84
2018-12-20T07:15:27.514Z,1027.86
2018-12-20T07:16:29.406Z,1027.89
2018-12-20T07:17:29.646Z,1027.86
2018-12-20T07:18:30.215Z,1027.82
2018-12-20T07:19:30.783Z,1027.83
2018-12-20T07:20:31.351Z,1027.84
2018-12-20T07:21:31.923Z,1027.84
2018-12-20T07:22:32.488Z,1027.74
2018-12-20T07:23:33.056Z,1027.86
2018-12-20T07:24:33.626Z,1027.87
2018-12-20T07:25:34.194Z,1027.84
2018-12-20T07:26:34.763Z,1027.81
2018-12-20T07:27:36.409Z,1027.84
2018-12-20T07:28:36.943Z,1027.95
2018-12-20T07:29:37.514Z,1027.86
2018-12-20T07:30:38.085Z,1027.88
2018-12-20T07:31:38.698Z,1027.94
2018-12-20T07:32:39.466Z,1027.86
2018-12-20T07:33:40.033Z,1027.97
2018-12-20T07:34:47.756Z,1027.95
2018-12-20T07:35:42.165Z,1028.04
2018-12-20T07:36:42.731Z,1027.95
2018-12-20T07:37:43.297Z,1028.04
2018-12-20T07:38:43.867Z,1028.06
2018-12-20T07:39:44.438Z,1028.04
2018-12-20T07:40:45.023Z,1028.06
2018-12-20T07:41:45.572Z,1028.16
2018-12-20T07:42:46.141Z,1028.10
2018-12-20T07:43:46.710Z,1028.08
2018-12-20T07:44:47.278Z,1028.08
2018-12-20T07:45:47.895Z,1028.07
2018-12-20T07:46:48.465Z,1028.09
2018-12-20T07:47:49.032Z,1028.12
2018-12-20T07:48:49.600Z,1028.18
2018-12-20T07:49:50.220Z,1028.12
2018-12-20T07:50:51.640Z,1028.18
2018-12-20T07:51:52.208Z,1028.20
2018-12-20T07:52:52.777Z,1028.25
2018-12-20T07:53:53.346Z,1028.21
2018-12-20T07:54:53.953Z,1028.22
2018-12-20T07:55:54.523Z,1028.25
2018-12-20T07:56:55.092Z,1028.29
2018-12-20T07:57:55.660Z,1028.26
2018-12-20T07:58:56.229Z,1028.24
2018-12-20T07:59:56.798Z,1028.26
2018-12-20T08:00:57.364Z,1028.30
2018-12-20T08:01:57.934Z,1028.28
2018-12-20T08:02:58.504Z,1028.25
2018-12-20T08:03:59.070Z,1028.23
2018-12-20T08:04:59.643Z,1028.34
2018-12-20T08:06:00.258Z,1028.23
2018-12-20T08:07:00.827Z,1028.21
2018-12-20T08:08:01.396Z,1028.23
2018-12-20T08:09:01.962Z,1028.32
2018-12-20T08:10:02.531Z,1028.34
2018-12-20T08:11:03.098Z,1028.37
2018-12-20T08:12:03.722Z,1028.35
2018-12-20T08:13:04.284Z,1028.30
2018-12-20T08:14:04.852Z,1028.37
2018-12-20T08:15:05.421Z,1028.46
2018-12-20T08:16:05.988Z,1028.37
2018-12-20T08:17:06.556Z,1028.39
2018-12-20T08:18:07.173Z,1028.43
2018-12-20T08:19:07.742Z,1028.50
2018-12-20T08:20:08.311Z,1028.48
2018-12-20T08:21:08.927Z,1028.40
2018-12-20T08:22:09.496Z,1028.45
2018-12-20T08:23:10.067Z,1028.52
2018-12-20T08:24:10.637Z,1028.46
2018-12-20T08:25:11.202Z,1028.48
2018-12-20T08:26:11.770Z,1028.54
2018-12-20T08:27:12.339Z,1028.57
2018-12-20T08:28:12.910Z,1028.52
2018-12-20T08:29:13.475Z,1028.58
2018-12-20T08:30:14.047Z,1028.52
2018-12-20T08:31:14.611Z,1028.52
2018-12-20T08:32:15.178Z,1028.60
2018-12-20T08:33:15.846Z,1028.55
2018-12-20T08:34:16.415Z,1028.54
2018-12-20T08:35:16.984Z,1028.55
2018-12-20T08:36:17.599Z,1028.59
2018-12-20T08:37:18.217Z,1028.61
2018-12-20T08:38:18.837Z,1028.64
2018-12-20T08:39:19.410Z,1028.62
2018-12-20T08:40:20.019Z,1028.61
2018-12-20T08:41:20.588Z,1028.66
2018-12-20T08:42:21.155Z,1028.72
2018-12-20T08:43:21.725Z,1028.70
2018-12-20T08:44:22.294Z,1028.66
2018-12-20T08:45:22.861Z,1028.66
2018-12-20T08:46:23.431Z,1028.67
2018-12-20T08:47:24.001Z,1028.66
2018-12-20T08:48:24.567Z,1028.64
2018-12-20T08:49:25.188Z,1028.66
2018-12-20T08:50:25.760Z,1028.73
2018-12-20T08:51:26.374Z,1028.72
2018-12-20T08:52:26.993Z,1028.78
2018-12-20T08:53:27.562Z,1028.79
2018-12-20T08:54:28.131Z,1028.82
2018-12-20T08:55:28.698Z,1028.75
2018-12-20T08:56:29.266Z,1028.77
2018-12-20T08:57:29.835Z,1028.80
2018-12-20T08:58:30.402Z,1028.84
2018-12-20T08:59:30.970Z,1028.87
2018-12-20T09:00:31.537Z,1028.83
2018-12-20T09:01:32.105Z,1028.87
2018-12-20T09:02:32.676Z,1028.86
2018-12-20T09:03:33.243Z,1028.93
2018-12-20T09:04:33.861Z,1028.86
2018-12-20T09:05:34.428Z,1028.93
2018-12-20T09:06:34.998Z,1028.91
2018-12-20T09:07:35.615Z,1028.97
2018-12-20T09:08:36.182Z,1029.00
2018-12-20T09:09:36.800Z,1028.94
2018-12-20T09:10:37.371Z,1029.02
2018-12-20T09:11:37.941Z,1028.97
2018-12-20T09:12:38.507Z,1028.97
2018-12-20T09:13:39.078Z,1028.97
2018-12-20T09:14:39.647Z,1029.04
2018-12-20T09:15:40.213Z,1029.09
2018-12-20T09:16:40.786Z,1029.04
2018-12-20T09:17:41.351Z,1029.01
2018-12-20T09:18:41.917Z,1029.09
2018-12-20T09:19:42.530Z,1029.05
2018-12-20T09:20:43.098Z,1029.10
2018-12-20T09:21:43.669Z,1029.07
2018-12-20T09:22:44.286Z,1029.15
2018-12-20T09:23:44.854Z,1029.12
2018-12-20T09:24:45.423Z,1029.15
2018-12-20T09:25:46.040Z,1029.23
2018-12-20T09:26:46.807Z,1029.26
2018-12-20T09:27:47.374Z,1029.22
2018-12-20T09:28:47.951Z,1029.25
2018-12-20T09:29:48.555Z,1029.22
2018-12-20T09:30:49.122Z,1029.24
2018-12-20T09:31:49.692Z,1029.19
2018-12-20T09:32:50.311Z,1029.38
2018-12-20T09:33:50.929Z,1029.25
2018-12-20T09:34:51.496Z,1029.32
2018-12-20T09:35:52.065Z,1029.25
2018-12-20T09:36:52.634Z,1029.25
2018-12-20T09:37:53.203Z,1029.31
2018-12-20T09:38:53.770Z,1029.31
2018-12-20T09:39:54.339Z,1029.38
2018-12-20T09:40:54.908Z,1029.27
2018-12-20T09:41:55.475Z,1029.36
2018-12-20T09:42:56.094Z,1029.36
2018-12-20T09:43:56.712Z,1029.43
2018-12-20T09:44:57.279Z,1029.40
2018-12-20T09:45:57.848Z,1029.52
2018-12-20T09:47:12.268Z,1029.43
2018-12-20T09:48:12.781Z,1029.48
2018-12-20T09:49:13.350Z,1029.48
2018-12-20T09:50:13.969Z,1029.50
2018-12-20T09:51:14.543Z,1029.55
2018-12-20T09:52:15.117Z,1029.53
2018-12-20T09:53:15.693Z,1029.58
2018-12-20T09:54:16.267Z,1029.63
2018-12-20T09:55:16.841Z,1029.64
2018-12-20T09:56:17.418Z,1029.60
2018-12-20T09:57:17.989Z,1029.54
2018-12-20T09:58:18.564Z,1029.60
2018-12-20T09:59:19.138Z,1029.60
2018-12-20T10:01:21.274Z,1029.63
2018-12-20T10:02:21.843Z,1029.64
2018-12-20T10:03:22.560Z,1029.67
2018-12-20T10:04:23.128Z,1029.67
2018-12-20T10:05:23.699Z,1029.68
2018-12-20T10:06:24.261Z,1029.72
2018-12-20T10:07:24.829Z,1029.74
2018-12-20T10:08:25.397Z,1029.78
2018-12-20T10:09:25.964Z,1029.79
2018-12-20T10:10:26.581Z,1029.80
2018-12-20T10:11:27.150Z,1029.85
2018-12-20T10:12:27.719Z,1029.87
2018-12-20T10:13:28.288Z,1029.84
2018-12-20T10:14:28.857Z,1029.91
2018-12-20T10:15:29.425Z,1029.90
2018-12-20T10:16:29.993Z,1029.90
2018-12-20T10:17:30.560Z,1029.92
2018-12-20T10:18:31.128Z,1029.88
2018-12-20T10:19:31.696Z,1029.93
2018-12-20T10:20:32.314Z,1029.92
2018-12-20T10:21:32.881Z,1029.96
2018-12-20T10:22:33.500Z,1029.99
2018-12-20T10:23:34.068Z,1029.97
2018-12-20T10:24:34.641Z,1029.92
2018-12-20T10:25:35.252Z,1030.00
2018-12-20T10:26:35.864Z,1029.98
2018-12-20T10:27:36.434Z,1030.03
2018-12-20T10:28:37.005Z,1029.95
2018-12-20T10:29:37.568Z,1029.96
2018-12-20T10:30:38.140Z,1030.00
2018-12-20T10:31:38.751Z,1030.03
2018-12-20T10:32:39.320Z,1029.94
2018-12-20T10:33:39.887Z,1030.06
2018-12-20T10:34:40.498Z,1029.99
2018-12-20T10:35:41.114Z,1030.01
2018-12-20T10:36:41.685Z,1030.08
2018-12-20T10:37:42.254Z,1030.02
2018-12-20T10:38:42.822Z,1030.05
2018-12-20T10:39:43.396Z,1030.04
2018-12-20T10:40:43.963Z,1030.11
2018-12-20T10:41:44.550Z,1030.07
2018-12-20T10:42:45.146Z,1030.05
2018-12-20T10:43:45.768Z,1030.08
2018-12-20T10:44:46.333Z,1030.06
2018-12-20T10:45:47.052Z,1030.08
2018-12-20T10:46:47.621Z,1030.11
2018-12-20T10:47:48.188Z,1030.11
2018-12-20T10:48:48.840Z,1030.08
2018-12-20T10:49:49.408Z,1030.12
2018-12-20T10:50:49.981Z,1030.13
2018-12-20T10:51:50.587Z,1030.12
2018-12-20T10:52:51.156Z,1030.08
2018-12-20T10:54:34.513Z,1030.12
2018-12-20T10:55:35.082Z,1030.09
2018-12-20T10:56:35.796Z,1030.03
2018-12-20T10:57:36.311Z,1030.10
2018-12-20T10:58:36.877Z,1030.05
2018-12-20T10:59:37.444Z,1030.12
2018-12-20T11:00:38.014Z,1030.03
2018-12-20T11:01:38.580Z,1030.06
2018-12-20T11:02:39.207Z,1030.10
2018-12-20T11:04:55.193Z,1030.03
2018-12-20T11:06:57.380Z,1030.16
2018-12-20T11:07:57.949Z,1030.14
2018-12-20T11:10:00.077Z,1030.17
2018-12-20T11:11:00.644Z,1030.18
2018-12-20T11:12:01.217Z,1030.24
2018-12-20T11:13:01.783Z,1030.19
2018-12-20T11:14:02.499Z,1030.14
2018-12-20T11:16:42.232Z,1030.19
2018-12-20T11:17:56.563Z,1030.17
2018-12-20T11:19:10.893Z,1030.16
2018-12-20T11:20:11.509Z,1030.22
2018-12-20T11:21:12.075Z,1030.17
2018-12-20T11:22:12.694Z,1030.16
2018-12-20T11:23:13.263Z,1030.15
2018-12-20T11:24:13.831Z,1030.11
2018-12-20T11:25:14.483Z,1030.10
2018-12-20T11:26:15.057Z,1030.11
2018-12-20T11:27:15.630Z,1030.07
2018-12-20T11:28:16.237Z,1030.08
2018-12-20T11:29:16.805Z,1030.08
2018-12-20T11:30:17.373Z,1030.02
2018-12-20T11:31:17.941Z,1030.04
2018-12-20T11:32:18.509Z,1030.00
2018-12-20T11:33:19.078Z,1029.96
2018-12-20T11:34:19.648Z,1029.90
2018-12-20T11:35:20.270Z,1029.92
2018-12-20T11:36:20.838Z,1029.92
2018-12-20T11:37:21.408Z,1029.90
2018-12-20T11:38:21.976Z,1029.91
2018-12-20T11:39:22.544Z,1029.90
2018-12-20T11:40:23.165Z,1029.95
2018-12-20T11:41:23.731Z,1029.91
2018-12-20T11:42:24.352Z,1029.89
2018-12-20T11:43:25.002Z,1029.90
2018-12-20T11:44:25.560Z,1029.90
2018-12-20T11:45:26.128Z,1029.86
2018-12-20T11:46:26.698Z,1029.82
2018-12-20T11:47:27.267Z,1029.83
2018-12-20T11:49:57.016Z,1029.91
2018-12-20T11:50:57.585Z,1029.86
2018-12-20T11:51:58.152Z,1029.81
2018-12-20T11:52:58.726Z,1029.89
2018-12-20T11:53:59.294Z,1029.90
2018-12-20T11:54:59.861Z,1029.88
2018-12-20T11:56:00.429Z,1029.80
2018-12-20T11:57:01.046Z,1029.84
2018-12-20T11:58:01.706Z,1029.83
2018-12-20T11:59:02.317Z,1029.92
2018-12-20T12:00:02.886Z,1029.81
2018-12-20T12:01:03.453Z,1029.88
2018-12-20T12:02:04.021Z,1029.79
2018-12-20T12:03:04.593Z,1029.88
2018-12-20T12:04:05.211Z,1029.88
2018-12-20T12:05:05.782Z,1029.76
2018-12-20T12:06:06.349Z,1029.84
2018-12-20T12:07:06.917Z,1029.78
2018-12-20T12:08:07.488Z,1029.80
2018-12-20T12:09:08.056Z,1029.78
2018-12-20T12:10:08.624Z,1029.86
2018-12-20T12:11:09.199Z,1029.82
2018-12-20T12:12:09.805Z,1029.84
2018-12-20T12:13:10.374Z,1029.77
2018-12-20T12:14:10.945Z,1029.76
2018-12-20T12:15:11.512Z,1029.82
2018-12-20T12:16:12.130Z,1029.79
2018-12-20T12:17:12.703Z,1029.79
2018-12-20T12:18:13.322Z,1029.76
2018-12-20T12:19:13.890Z,1029.71
2018-12-20T12:20:14.458Z,1029.74
2018-12-20T12:21:15.024Z,1029.67
2018-12-20T12:22:15.596Z,1029.68
2018-12-20T12:23:16.206Z,1029.64
2018-12-20T12:24:16.774Z,1029.73
2018-12-20T12:25:17.343Z,1029.63
2018-12-20T12:26:17.914Z,1029.53
2018-12-20T12:27:18.530Z,1029.61
2018-12-20T12:28:19.100Z,1029.53
2018-12-20T12:30:05.532Z,1029.48
2018-12-20T12:31:06.202Z,1029.50
2018-12-20T12:32:06.769Z,1029.52
2018-12-20T12:33:07.440Z,1029.49
2018-12-20T12:34:08.007Z,1029.51
2018-12-20T12:35:08.576Z,1029.47
2018-12-20T12:36:09.245Z,1029.50
2018-12-20T12:37:09.814Z,1029.50
2018-12-20T12:38:10.381Z,1029.50
2018-12-20T12:39:10.949Z,1029.49
2018-12-20T12:40:11.518Z,1029.50
2018-12-20T12:41:12.088Z,1029.49
2018-12-20T12:42:12.656Z,1029.47
2018-12-20T12:43:13.225Z,1029.49
2018-12-20T12:44:13.795Z,1029.51
2018-12-20T12:45:14.364Z,1029.55
2018-12-20T12:46:14.937Z,1029.51
2018-12-20T12:47:15.506Z,1029.54
2018-12-20T12:48:16.074Z,1029.51
2018-12-20T12:49:16.794Z,1029.49
2018-12-20T12:50:17.364Z,1029.47
2018-12-20T12:51:17.934Z,1029.45
2018-12-20T12:52:18.501Z,1029.51
2018-12-20T12:53:19.121Z,1029.38
2018-12-20T12:54:19.691Z,1029.41
2018-12-20T12:55:20.264Z,1029.45
2018-12-20T12:56:20.831Z,1029.43
2018-12-20T12:57:22.429Z,1029.43
2018-12-20T12:58:23.011Z,1029.37
2018-12-20T12:59:23.624Z,1029.44
2018-12-20T13:00:24.194Z,1029.45
2018-12-20T13:01:24.763Z,1029.42
2018-12-20T13:02:25.332Z,1029.44
2018-12-20T13:03:25.903Z,1029.43
2018-12-20T13:04:26.520Z,1029.40
2018-12-20T13:05:27.091Z,1029.44
2018-12-20T13:06:27.658Z,1029.43
2018-12-20T13:07:28.225Z,1029.40
2018-12-20T13:08:28.795Z,1029.42
2018-12-20T13:09:29.441Z,1029.33
2018-12-20T13:10:29.959Z,1029.32
2018-12-20T13:11:30.530Z,1029.31
2018-12-20T13:12:31.149Z,1029.36
2018-12-20T13:13:31.753Z,1029.31
2018-12-20T13:14:32.363Z,1029.32
2018-12-20T13:15:32.933Z,1029.28
2018-12-20T13:16:33.501Z,1029.30
2018-12-20T13:17:34.118Z,1029.31
2018-12-20T13:18:34.738Z,1029.24
2018-12-20T13:19:35.307Z,1029.23
2018-12-20T13:20:35.878Z,1029.25
2018-12-20T13:21:36.447Z,1029.32
2018-12-20T13:22:37.067Z,1029.29
2018-12-20T13:23:37.636Z,1029.23
2018-12-20T13:24:40.235Z,1029.37
2018-12-20T13:25:39.770Z,1029.28
2018-12-20T13:26:40.338Z,1029.23
2018-12-20T13:27:40.908Z,1029.32
2018-12-20T13:28:41.478Z,1029.13
2018-12-20T13:29:42.048Z,1029.23
2018-12-20T13:30:42.620Z,1029.33
2018-12-20T13:31:43.189Z,1029.33
2018-12-20T13:32:43.761Z,1029.30
2018-12-20T13:33:44.327Z,1029.38
2018-12-20T13:34:45.046Z,1029.31
2018-12-20T13:35:45.616Z,1029.25
2018-12-20T13:36:46.186Z,1029.33
2018-12-20T13:37:46.757Z,1029.23
2018-12-20T13:38:47.376Z,1029.21
2018-12-20T13:39:47.996Z,1029.26
2018-12-20T13:40:48.565Z,1029.19
2018-12-20T13:41:49.177Z,1029.30
2018-12-20T13:42:49.749Z,1029.23
2018-12-20T13:43:50.316Z,1029.19
2018-12-20T13:44:51.032Z,1029.22
2018-12-20T13:45:51.561Z,1029.36
2018-12-20T13:46:52.132Z,1029.29
2018-12-20T13:47:52.699Z,1029.29
2018-12-20T13:48:53.270Z,1029.29
2018-12-20T13:49:53.839Z,1029.25
2018-12-20T13:50:54.409Z,1029.29
2018-12-20T13:51:54.978Z,1029.23
2018-12-20T13:52:55.600Z,1029.23
2018-12-20T13:53:56.174Z,1029.32
2018-12-20T13:54:56.741Z,1029.23
2018-12-20T13:55:57.311Z,1029.24
2018-12-20T13:56:57.932Z,1029.22
2018-12-20T13:57:58.503Z,1029.16
2018-12-20T13:59:03.412Z,1029.19
2018-12-20T14:00:00.689Z,1029.18
2018-12-20T14:01:01.256Z,1029.15
2018-12-20T14:05:16.511Z,1029.11
2018-12-20T14:06:17.052Z,1029.26
2018-12-20T14:07:17.627Z,1029.11
2018-12-20T14:08:18.235Z,1029.12
2018-12-20T14:09:19.916Z,1029.17
2018-12-20T14:10:20.363Z,1029.18
2018-12-20T14:11:20.984Z,1029.22
2018-12-20T14:12:21.603Z,1029.26
2018-12-20T14:13:22.172Z,1029.22